Ramsey, IL

7:47 PM CDT on July 28, 2014 (GMT -0500)
Litchfield (K3LF) Elev 689 ft | 39.16 °N, 89.67 °W | Change Station

Current weather conditions updated 12 minutes ago

Clear
Clear
67 °F
Feels Like 67 °F
N
7
Wind Variable Wind from NNW

Tomorrow is forecast to be Warmer than today.

Today
High -- | Low -- °F
--% Chance of Precip.
Yesterday
High -- | Low -- °F
Precip. -- in
5:53 AM 8:12 PM
Waxing Crescent, 4% visible
Pressure 30.11 in
Visibility 10.0 miles
Clouds Clear
Dew Point 53 °F
Humidity 61%
Rainfall 0.00 in
Snow Depth Not available.
UV 0 out of 12
Pollen 7.10 out of 12
Air Quality Not available.
Flu Activity Not available.
METAR K3LF 290035Z AUTO 34006KT 10SM CLR 20/12 A3011 RMK AO2 T01950119

More Conditions Fewer Conditions

Pressure 30.11 in
Visibility 10.0 miles
Clouds Clear
Dew Point 53 °F
Humidity 61%
Rainfall 0.00 in
Snow Depth Not available.
UV 0 out of 12
Pollen 7.10 out of 12
Air Quality Not available.
Flu Activity Not available.
METAR K3LF 290035Z AUTO 34006KT 10SM CLR 20/12 A3011 RMK AO2 T01950119

More Conditions Fewer Conditions

10-Day Weather Forecast

Almanac

Astronomy

Jul. 28, 2014 Rise Set
Actual Time 5:53 AM CDT 8:12 PM CDT
Civil Twilight 5:23 AM CDT 8:42 PM CDT
Nautical Twilight 4:45 AM CDT 9:19 PM CDT
Astronomical Twilight 4:04 AM CDT 9:59 PM CDT
Moon 7:33 AM CDT (7/28) 8:55 PM CDT (7/28)
Length of Visible Light 15h 18m
Length of Day
14h 18m
Tomorrow will be 1m 48s shorter.
Waxing Crescent, 4% of the Moon is Illuminated
Today
Waxing Crescent
Aug 3
First Quarter
Aug 10
Full
Aug 17
Last Quarter
Aug 25
New

Today's Extremes

State Highs State Lows

Community

WunderPhotos

Upload Photos

1,738,571 photos uploaded!

WunderBlogs® & News

Nearby

Snow Depth

Station Depth Elevation
No new snow has been reported.

Earthquake Activity

City Distance Mag. Time & Date
No recent earthquake activity has been reported nearby.
Minimum magnitude displayed is 2.5.

Coastal Water Temperatures

Place Temperature
No Stations Reporting

Nearby Weather Stations

Station Location Temp. Heat Index Dew Point Humidity Wind Precip. Elev Updated Type
MesoWest NOKOMS , Nokomis, IL 76 °F 74 °F - - North  at  - 0.00 in / hr 659 ft 4:55 PM CDT MADIS
St. Elmo, Ilinois, St. Elmo, IL 70.4 °F 76 °F 54 °F 56% NNE  at  1.0 mph 0.00 in / hr 620 ft 7:37 PM CDT Normal
Pana, Pana, IL 68.0 °F - 55 °F 64% NW  at  2.0 mph 0.00 in / hr 692 ft 7:46 PM CDT Rapid Fire
MesoWest ESELMO , Altamont, IL 0 °F - - - North  at  - 0.00 in / hr 625 ft 5:50 PM CDT MADIS
Eckcellent Karaoke, Hillsboro, IL 67.8 °F - 56 °F 65% NNW  at  0.0 mph 0.00 in / hr 614 ft 7:47 PM CDT Rapid Fire
MesoWest CLRKBG , Clarksburg, IL 96 °F 91 °F - - North  at  - 0.00 in / hr 622 ft 5:35 PM CDT MADIS
Blue Streaks AtmoBug Greenville, Greenville, IL 70.0 °F - 56 °F 61% NW  at  0.0 mph - / hr 607 ft 7:33 PM CDT Normal
APRSWXNET Shelbyville IL , Shelbyville, IL 69 °F - 55 °F 62% North  at  1 mph 0.00 in / hr 616 ft 7:05 PM CDT MADIS

Show More Stations Show Fewer Stations